Storrington, United Kingdom
Current Conditions -  °F | °C
As of 2:50 PM on Friday 31 Oct 2014 (Local Time) from EGKA Reporting Station
Clear Clear  
Wind Chill: 63°   Ceiling: Unl
Heat Index: 63°   Visibility: 6mi
Dew Point: 57°   Wind: 12mph
Humidity: 82%   Direction: 110°ESE
Pressure: 30"   Gusts: NA
Location:  50.92°N, 0.45°W
Report Text: EGKA 311450Z 11010KT CAVOK 17/14 Q1016
Loading
Personal Weather Stations






























Interactive Weather Map
Tropical Storm Tracking
New forecast layout! Learn more

10-Day Weather Forecast

Advertisements
Track Severe Weather on mobile